sensor_id;sensor_type;location;lat;lon;timestamp;temperature;humidity
22379;DHT22;11357;49.990;7.370;2023-08-17T00:01:47;20.70;91.80
22379;DHT22;11357;49.990;7.370;2023-08-17T00:04:13;20.60;91.70
22379;DHT22;11357;49.990;7.370;2023-08-17T00:06:38;20.50;91.60
22379;DHT22;11357;49.990;7.370;2023-08-17T00:09:04;20.40;91.50
22379;DHT22;11357;49.990;7.370;2023-08-17T00:11:30;20.30;91.60
22379;DHT22;11357;49.990;7.370;2023-08-17T00:13:56;20.20;91.80
22379;DHT22;11357;49.990;7.370;2023-08-17T00:16:21;20.20;91.90
22379;DHT22;11357;49.990;7.370;2023-08-17T00:18:49;20.10;92.10
22379;DHT22;11357;49.990;7.370;2023-08-17T00:21:14;20.10;92.20
22379;DHT22;11357;49.990;7.370;2023-08-17T00:23:40;20.10;92.10
22379;DHT22;11357;49.990;7.370;2023-08-17T00:26:06;20.10;92.10
22379;DHT22;11357;49.990;7.370;2023-08-17T00:28:32;20.00;92.10
22379;DHT22;11357;49.990;7.370;2023-08-17T00:30:57;20.00;92.10
22379;DHT22;11357;49.990;7.370;2023-08-17T00:33:23;19.90;92.20
22379;DHT22;11357;49.990;7.370;2023-08-17T00:35:48;19.90;92.20
22379;DHT22;11357;49.990;7.370;2023-08-17T00:38:14;19.90;92.20
22379;DHT22;11357;49.990;7.370;2023-08-17T00:40:40;19.90;92.20
22379;DHT22;11357;49.990;7.370;2023-08-17T00:43:06;19.90;92.30
22379;DHT22;11357;49.990;7.370;2023-08-17T00:45:32;19.90;92.30
22379;DHT22;11357;49.990;7.370;2023-08-17T00:47:58;19.90;92.40
22379;DHT22;11357;49.990;7.370;2023-08-17T00:50:25;19.90;92.40
22379;DHT22;11357;49.990;7.370;2023-08-17T00:52:52;19.90;92.30
22379;DHT22;11357;49.990;7.370;2023-08-17T00:55:18;19.90;92.30
22379;DHT22;11357;49.990;7.370;2023-08-17T00:57:44;19.90;92.20
22379;DHT22;11357;49.990;7.370;2023-08-17T01:00:11;19.90;92.20
22379;DHT22;11357;49.990;7.370;2023-08-17T01:02:41;19.90;92.20
22379;DHT22;11357;49.990;7.370;2023-08-17T01:05:07;19.90;92.20
22379;DHT22;11357;49.990;7.370;2023-08-17T01:07:33;19.90;92.20
22379;DHT22;11357;49.990;7.370;2023-08-17T01:09:59;19.90;92.10
22379;DHT22;11357;49.990;7.370;2023-08-17T01:15:10;19.90;92.10
22379;DHT22;11357;49.990;7.370;2023-08-17T01:20:22;19.90;92.00
22379;DHT22;11357;49.990;7.370;2023-08-17T01:22:49;19.90;91.90
22379;DHT22;11357;49.990;7.370;2023-08-17T01:25:15;19.80;91.90
22379;DHT22;11357;49.990;7.370;2023-08-17T01:27:43;19.80;91.90
22379;DHT22;11357;49.990;7.370;2023-08-17T01:30:11;19.70;92.00
22379;DHT22;11357;49.990;7.370;2023-08-17T01:33:03;19.70;92.10
22379;DHT22;11357;49.990;7.370;2023-08-17T01:35:48;19.60;92.20
22379;DHT22;11357;49.990;7.370;2023-08-17T01:38:18;19.60;92.20
22379;DHT22;11357;49.990;7.370;2023-08-17T01:40:49;19.50;92.20
22379;DHT22;11357;49.990;7.370;2023-08-17T01:43:16;19.50;92.30
22379;DHT22;11357;49.990;7.370;2023-08-17T01:45:42;19.50;92.30
22379;DHT22;11357;49.990;7.370;2023-08-17T01:48:08;19.60;92.30
22379;DHT22;11357;49.990;7.370;2023-08-17T01:50:34;19.60;92.30
22379;DHT22;11357;49.990;7.370;2023-08-17T01:52:59;19.50;92.20
22379;DHT22;11357;49.990;7.370;2023-08-17T01:55:25;19.50;92.30
22379;DHT22;11357;49.990;7.370;2023-08-17T01:57:52;19.50;92.30
22379;DHT22;11357;49.990;7.370;2023-08-17T02:00:18;19.40;92.30
22379;DHT22;11357;49.990;7.370;2023-08-17T02:02:44;19.40;92.40
22379;DHT22;11357;49.990;7.370;2023-08-17T02:05:09;19.30;92.50
22379;DHT22;11357;49.990;7.370;2023-08-17T02:07:35;19.20;92.50
22379;DHT22;11357;49.990;7.370;2023-08-17T02:10:01;19.20;92.60
22379;DHT22;11357;49.990;7.370;2023-08-17T02:12:27;19.20;92.60
22379;DHT22;11357;49.990;7.370;2023-08-17T02:14:52;19.20;92.70
22379;DHT22;11357;49.990;7.370;2023-08-17T02:17:19;19.20;92.70
22379;DHT22;11357;49.990;7.370;2023-08-17T02:19:46;19.20;92.80
22379;DHT22;11357;49.990;7.370;2023-08-17T02:22:13;19.20;92.80
22379;DHT22;11357;49.990;7.370;2023-08-17T02:24:39;19.20;92.80
22379;DHT22;11357;49.990;7.370;2023-08-17T02:27:04;19.20;92.70
22379;DHT22;11357;49.990;7.370;2023-08-17T02:29:30;19.20;92.70
22379;DHT22;11357;49.990;7.370;2023-08-17T02:31:56;19.30;92.70
22379;DHT22;11357;49.990;7.370;2023-08-17T02:34:21;19.20;92.70
22379;DHT22;11357;49.990;7.370;2023-08-17T02:36:47;19.20;92.60
22379;DHT22;11357;49.990;7.370;2023-08-17T02:39:12;19.10;92.40
22379;DHT22;11357;49.990;7.370;2023-08-17T02:41:38;19.00;92.50
22379;DHT22;11357;49.990;7.370;2023-08-17T02:44:04;19.00;92.60
22379;DHT22;11357;49.990;7.370;2023-08-17T02:46:30;18.90;92.70
22379;DHT22;11357;49.990;7.370;2023-08-17T02:48:56;18.80;92.80
22379;DHT22;11357;49.990;7.370;2023-08-17T02:51:22;18.80;93.00
22379;DHT22;11357;49.990;7.370;2023-08-17T02:53:47;18.80;93.10
22379;DHT22;11357;49.990;7.370;2023-08-17T02:56:13;18.90;93.20
22379;DHT22;11357;49.990;7.370;2023-08-17T02:58:39;18.90;93.20
22379;DHT22;11357;49.990;7.370;2023-08-17T03:01:08;19.00;93.40
22379;DHT22;11357;49.990;7.370;2023-08-17T03:03:34;19.00;93.50
22379;DHT22;11357;49.990;7.370;2023-08-17T03:06:00;19.10;93.80
22379;DHT22;11357;49.990;7.370;2023-08-17T03:08:26;19.20;93.90
22379;DHT22;11357;49.990;7.370;2023-08-17T03:10:52;19.20;94.10
22379;DHT22;11357;49.990;7.370;2023-08-17T03:13:18;19.30;94.20
22379;DHT22;11357;49.990;7.370;2023-08-17T03:15:44;19.30;94.30
22379;DHT22;11357;49.990;7.370;2023-08-17T03:18:10;19.40;94.50
22379;DHT22;11357;49.990;7.370;2023-08-17T03:20:36;19.50;94.50
22379;DHT22;11357;49.990;7.370;2023-08-17T03:23:02;19.50;94.50
22379;DHT22;11357;49.990;7.370;2023-08-17T03:25:31;19.60;94.40
22379;DHT22;11357;49.990;7.370;2023-08-17T03:27:57;19.60;94.30
22379;DHT22;11357;49.990;7.370;2023-08-17T03:30:23;19.70;94.30
22379;DHT22;11357;49.990;7.370;2023-08-17T03:32:48;19.70;94.20
22379;DHT22;11357;49.990;7.370;2023-08-17T03:35:14;19.70;94.20
22379;DHT22;11357;49.990;7.370;2023-08-17T03:37:40;19.70;94.20
22379;DHT22;11357;49.990;7.370;2023-08-17T03:40:06;19.70;94.30
22379;DHT22;11357;49.990;7.370;2023-08-17T03:42:32;19.80;94.40
22379;DHT22;11357;49.990;7.370;2023-08-17T03:44:58;19.80;94.40
22379;DHT22;11357;49.990;7.370;2023-08-17T03:47:24;19.80;94.40
22379;DHT22;11357;49.990;7.370;2023-08-17T03:49:51;19.80;94.40
22379;DHT22;11357;49.990;7.370;2023-08-17T03:52:16;19.80;94.40
22379;DHT22;11357;49.990;7.370;2023-08-17T03:54:42;19.90;94.40
22379;DHT22;11357;49.990;7.370;2023-08-17T03:57:08;19.90;94.50
22379;DHT22;11357;49.990;7.370;2023-08-17T03:59:34;19.90;94.50
22379;DHT22;11357;49.990;7.370;2023-08-17T04:01:59;19.90;94.50
22379;DHT22;11357;49.990;7.370;2023-08-17T04:04:25;19.90;94.50
22379;DHT22;11357;49.990;7.370;2023-08-17T04:06:50;19.90;94.50
22379;DHT22;11357;49.990;7.370;2023-08-17T04:09:16;19.90;94.50
22379;DHT22;11357;49.990;7.370;2023-08-17T04:11:42;20.00;94.50
22379;DHT22;11357;49.990;7.370;2023-08-17T04:14:07;20.00;94.50
22379;DHT22;11357;49.990;7.370;2023-08-17T04:16:35;20.00;94.50
22379;DHT22;11357;49.990;7.370;2023-08-17T04:19:00;20.00;94.50
22379;DHT22;11357;49.990;7.370;2023-08-17T04:21:26;20.00;94.50
22379;DHT22;11357;49.990;7.370;2023-08-17T04:23:52;20.10;94.50
22379;DHT22;11357;49.990;7.370;2023-08-17T04:26:17;20.10;94.50
22379;DHT22;11357;49.990;7.370;2023-08-17T04:28:43;20.10;94.50
22379;DHT22;11357;49.990;7.370;2023-08-17T04:31:09;20.10;94.50
22379;DHT22;11357;49.990;7.370;2023-08-17T04:33:34;20.10;94.50
22379;DHT22;11357;49.990;7.370;2023-08-17T04:36:00;20.10;94.50
22379;DHT22;11357;49.990;7.370;2023-08-17T04:38:26;20.20;94.50
22379;DHT22;11357;49.990;7.370;2023-08-17T04:40:52;20.20;94.50
22379;DHT22;11357;49.990;7.370;2023-08-17T04:43:17;20.20;94.40
22379;DHT22;11357;49.990;7.370;2023-08-17T04:45:43;20.20;94.40
22379;DHT22;11357;49.990;7.370;2023-08-17T04:48:13;20.20;94.40
22379;DHT22;11357;49.990;7.370;2023-08-17T04:50:38;20.20;94.40
22379;DHT22;11357;49.990;7.370;2023-08-17T04:53:04;20.20;94.40
22379;DHT22;11357;49.990;7.370;2023-08-17T04:55:30;20.20;94.40
22379;DHT22;11357;49.990;7.370;2023-08-17T04:57:57;20.30;94.40
22379;DHT22;11357;49.990;7.370;2023-08-17T05:00:23;20.20;94.30
22379;DHT22;11357;49.990;7.370;2023-08-17T05:02:57;20.30;94.40
22379;DHT22;11357;49.990;7.370;2023-08-17T05:05:23;20.30;94.40
22379;DHT22;11357;49.990;7.370;2023-08-17T05:07:49;20.30;94.40
22379;DHT22;11357;49.990;7.370;2023-08-17T05:10:15;20.40;94.40
22379;DHT22;11357;49.990;7.370;2023-08-17T05:12:40;20.40;94.50
22379;DHT22;11357;49.990;7.370;2023-08-17T05:15:06;20.40;94.40
22379;DHT22;11357;49.990;7.370;2023-08-17T05:17:32;20.50;94.50
22379;DHT22;11357;49.990;7.370;2023-08-17T05:19:58;20.50;94.40
22379;DHT22;11357;49.990;7.370;2023-08-17T05:22:23;20.50;94.40
22379;DHT22;11357;49.990;7.370;2023-08-17T05:24:49;20.60;94.40
22379;DHT22;11357;49.990;7.370;2023-08-17T05:27:15;20.60;94.40
22379;DHT22;11357;49.990;7.370;2023-08-17T05:29:40;20.60;94.40
22379;DHT22;11357;49.990;7.370;2023-08-17T05:32:06;20.70;94.40
22379;DHT22;11357;49.990;7.370;2023-08-17T05:34:32;20.70;94.40
22379;DHT22;11357;49.990;7.370;2023-08-17T05:36:57;20.70;94.40
22379;DHT22;11357;49.990;7.370;2023-08-17T05:39:23;20.80;94.30
22379;DHT22;11357;49.990;7.370;2023-08-17T05:41:49;20.80;94.30
22379;DHT22;11357;49.990;7.370;2023-08-17T05:44:14;20.90;94.30
22379;DHT22;11357;49.990;7.370;2023-08-17T05:46:41;20.90;94.30
22379;DHT22;11357;49.990;7.370;2023-08-17T05:49:06;20.90;94.30
22379;DHT22;11357;49.990;7.370;2023-08-17T05:51:32;21.00;94.20
22379;DHT22;11357;49.990;7.370;2023-08-17T05:53:58;21.00;94.20
22379;DHT22;11357;49.990;7.370;2023-08-17T05:56:24;21.10;94.00
22379;DHT22;11357;49.990;7.370;2023-08-17T05:58:49;21.00;93.90
22379;DHT22;11357;49.990;7.370;2023-08-17T06:01:15;21.00;94.00
22379;DHT22;11357;49.990;7.370;2023-08-17T06:03:41;21.00;94.10
22379;DHT22;11357;49.990;7.370;2023-08-17T06:06:06;21.10;94.10
22379;DHT22;11357;49.990;7.370;2023-08-17T06:08:32;21.10;94.10
22379;DHT22;11357;49.990;7.370;2023-08-17T06:10:58;21.20;94.10
22379;DHT22;11357;49.990;7.370;2023-08-17T06:13:23;21.30;94.20
22379;DHT22;11357;49.990;7.370;2023-08-17T06:15:49;21.30;94.20
22379;DHT22;11357;49.990;7.370;2023-08-17T06:18:15;21.40;94.20
22379;DHT22;11357;49.990;7.370;2023-08-17T06:20:41;21.40;94.10
22379;DHT22;11357;49.990;7.370;2023-08-17T06:23:07;21.40;94.10
22379;DHT22;11357;49.990;7.370;2023-08-17T06:25:33;21.50;94.20
22379;DHT22;11357;49.990;7.370;2023-08-17T06:28:00;21.50;94.10
22379;DHT22;11357;49.990;7.370;2023-08-17T06:30:25;21.60;94.20
22379;DHT22;11357;49.990;7.370;2023-08-17T06:32:51;21.60;94.30
22379;DHT22;11357;49.990;7.370;2023-08-17T06:35:17;21.70;94.40
22379;DHT22;11357;49.990;7.370;2023-08-17T06:37:43;21.80;94.50
22379;DHT22;11357;49.990;7.370;2023-08-17T06:40:09;22.00;94.50
22379;DHT22;11357;49.990;7.370;2023-08-17T06:42:35;22.20;94.50
22379;DHT22;11357;49.990;7.370;2023-08-17T06:45:01;22.30;94.50
22379;DHT22;11357;49.990;7.370;2023-08-17T06:47:27;22.40;94.30
22379;DHT22;11357;49.990;7.370;2023-08-17T06:49:52;22.50;94.20
22379;DHT22;11357;49.990;7.370;2023-08-17T06:52:18;22.60;94.10
22379;DHT22;11357;49.990;7.370;2023-08-17T06:54:44;22.70;93.90
22379;DHT22;11357;49.990;7.370;2023-08-17T06:57:09;22.70;94.20
22379;DHT22;11357;49.990;7.370;2023-08-17T06:59:35;22.80;93.90
22379;DHT22;11357;49.990;7.370;2023-08-17T07:02:01;22.80;93.90
22379;DHT22;11357;49.990;7.370;2023-08-17T07:04:26;22.80;93.90
22379;DHT22;11357;49.990;7.370;2023-08-17T07:06:52;22.80;93.90
22379;DHT22;11357;49.990;7.370;2023-08-17T07:09:18;22.90;94.00
22379;DHT22;11357;49.990;7.370;2023-08-17T07:11:44;23.00;94.10
22379;DHT22;11357;49.990;7.370;2023-08-17T07:14:09;23.10;94.00
22379;DHT22;11357;49.990;7.370;2023-08-17T07:16:35;23.20;93.90
22379;DHT22;11357;49.990;7.370;2023-08-17T07:19:01;23.30;93.80
22379;DHT22;11357;49.990;7.370;2023-08-17T07:21:27;23.40;93.70
22379;DHT22;11357;49.990;7.370;2023-08-17T07:23:54;23.40;93.40
22379;DHT22;11357;49.990;7.370;2023-08-17T07:26:21;23.40;93.20
22379;DHT22;11357;49.990;7.370;2023-08-17T07:28:47;23.40;93.30
22379;DHT22;11357;49.990;7.370;2023-08-17T07:31:13;23.40;93.20
22379;DHT22;11357;49.990;7.370;2023-08-17T07:33:39;23.50;93.70
22379;DHT22;11357;49.990;7.370;2023-08-17T07:36:05;23.60;93.50
22379;DHT22;11357;49.990;7.370;2023-08-17T07:38:31;23.80;93.00
22379;DHT22;11357;49.990;7.370;2023-08-17T07:40:56;23.90;92.90
22379;DHT22;11357;49.990;7.370;2023-08-17T07:43:23;24.00;92.70
22379;DHT22;11357;49.990;7.370;2023-08-17T07:45:55;24.00;92.70
22379;DHT22;11357;49.990;7.370;2023-08-17T07:48:21;24.10;92.60
22379;DHT22;11357;49.990;7.370;2023-08-17T07:50:51;24.20;92.50
22379;DHT22;11357;49.990;7.370;2023-08-17T07:53:17;24.20;92.30
22379;DHT22;11357;49.990;7.370;2023-08-17T07:55:43;24.30;92.20
22379;DHT22;11357;49.990;7.370;2023-08-17T07:58:09;24.40;92.20
22379;DHT22;11357;49.990;7.370;2023-08-17T08:00:35;24.50;92.00
22379;DHT22;11357;49.990;7.370;2023-08-17T08:03:00;24.50;91.80
22379;DHT22;11357;49.990;7.370;2023-08-17T08:05:26;24.50;91.60
22379;DHT22;11357;49.990;7.370;2023-08-17T08:07:53;24.40;91.40
22379;DHT22;11357;49.990;7.370;2023-08-17T08:10:18;24.30;91.40
22379;DHT22;11357;49.990;7.370;2023-08-17T08:12:44;24.30;91.50
22379;DHT22;11357;49.990;7.370;2023-08-17T08:15:10;24.30;91.40
22379;DHT22;11357;49.990;7.370;2023-08-17T08:17:36;24.40;91.40
22379;DHT22;11357;49.990;7.370;2023-08-17T08:20:02;24.50;91.20
22379;DHT22;11357;49.990;7.370;2023-08-17T08:22:28;24.50;91.00
22379;DHT22;11357;49.990;7.370;2023-08-17T08:24:54;24.50;90.90
22379;DHT22;11357;49.990;7.370;2023-08-17T08:27:20;24.40;90.80
22379;DHT22;11357;49.990;7.370;2023-08-17T08:29:45;24.40;90.80
22379;DHT22;11357;49.990;7.370;2023-08-17T08:32:11;24.40;90.80
22379;DHT22;11357;49.990;7.370;2023-08-17T08:34:36;24.40;90.60
22379;DHT22;11357;49.990;7.370;2023-08-17T08:37:02;24.40;90.70
22379;DHT22;11357;49.990;7.370;2023-08-17T08:39:28;24.50;90.70
22379;DHT22;11357;49.990;7.370;2023-08-17T08:41:54;24.50;90.40
22379;DHT22;11357;49.990;7.370;2023-08-17T08:44:20;24.70;90.50
22379;DHT22;11357;49.990;7.370;2023-08-17T08:46:46;24.90;90.20
22379;DHT22;11357;49.990;7.370;2023-08-17T08:49:12;25.30;89.60
22379;DHT22;11357;49.990;7.370;2023-08-17T08:51:44;25.70;88.90
22379;DHT22;11357;49.990;7.370;2023-08-17T08:54:13;26.30;87.70
22379;DHT22;11357;49.990;7.370;2023-08-17T08:56:42;26.70;85.80
22379;DHT22;11357;49.990;7.370;2023-08-17T08:59:09;27.20;85.20
22379;DHT22;11357;49.990;7.370;2023-08-17T09:01:36;27.40;83.20
22379;DHT22;11357;49.990;7.370;2023-08-17T09:04:04;27.70;82.40
22379;DHT22;11357;49.990;7.370;2023-08-17T09:06:32;28.00;81.60
22379;DHT22;11357;49.990;7.370;2023-08-17T09:08:58;28.40;81.00
22379;DHT22;11357;49.990;7.370;2023-08-17T09:11:26;28.60;79.80
22379;DHT22;11357;49.990;7.370;2023-08-17T09:13:53;28.90;79.20
22379;DHT22;11357;49.990;7.370;2023-08-17T09:16:21;29.10;78.20
22379;DHT22;11357;49.990;7.370;2023-08-17T09:18:49;29.10;77.10
22379;DHT22;11357;49.990;7.370;2023-08-17T09:21:30;29.00;76.80
22379;DHT22;11357;49.990;7.370;2023-08-17T09:24:03;29.30;77.40
22379;DHT22;11357;49.990;7.370;2023-08-17T09:26:32;29.60;76.00
22379;DHT22;11357;49.990;7.370;2023-08-17T09:29:00;29.70;75.60
22379;DHT22;11357;49.990;7.370;2023-08-17T09:31:31;30.00;75.30
22379;DHT22;11357;49.990;7.370;2023-08-17T09:33:57;30.40;74.00
22379;DHT22;11357;49.990;7.370;2023-08-17T09:36:25;30.90;72.90
22379;DHT22;11357;49.990;7.370;2023-08-17T09:38:52;31.00;71.80
22379;DHT22;11357;49.990;7.370;2023-08-17T09:41:18;31.00;71.20
22379;DHT22;11357;49.990;7.370;2023-08-17T09:43:46;31.00;71.60
22379;DHT22;11357;49.990;7.370;2023-08-17T09:46:16;31.00;71.10
22379;DHT22;11357;49.990;7.370;2023-08-17T09:48:45;31.00;70.50
22379;DHT22;11357;49.990;7.370;2023-08-17T09:51:16;31.00;70.60
22379;DHT22;11357;49.990;7.370;2023-08-17T09:53:43;31.10;70.60
22379;DHT22;11357;49.990;7.370;2023-08-17T09:56:10;31.30;69.70
22379;DHT22;11357;49.990;7.370;2023-08-17T09:58:40;31.50;69.00
22379;DHT22;11357;49.990;7.370;2023-08-17T10:01:07;31.70;68.30
22379;DHT22;11357;49.990;7.370;2023-08-17T10:03:34;31.90;67.70
22379;DHT22;11357;49.990;7.370;2023-08-17T10:06:05;32.40;67.90
22379;DHT22;11357;49.990;7.370;2023-08-17T10:08:35;32.80;66.80
22379;DHT22;11357;49.990;7.370;2023-08-17T10:11:05;33.40;64.70
22379;DHT22;11357;49.990;7.370;2023-08-17T10:13:40;33.80;63.00
22379;DHT22;11357;49.990;7.370;2023-08-17T10:19:07;34.60;61.50
22379;DHT22;11357;49.990;7.370;2023-08-17T10:21:36;35.20;60.00
22379;DHT22;11357;49.990;7.370;2023-08-17T10:24:07;35.30;59.00
22379;DHT22;11357;49.990;7.370;2023-08-17T10:26:34;35.40;58.70
22379;DHT22;11357;49.990;7.370;2023-08-17T10:29:00;35.40;57.60
22379;DHT22;11357;49.990;7.370;2023-08-17T10:31:28;35.10;57.10
22379;DHT22;11357;49.990;7.370;2023-08-17T10:33:55;34.50;57.80
22379;DHT22;11357;49.990;7.370;2023-08-17T10:36:23;34.00;58.80
22379;DHT22;11357;49.990;7.370;2023-08-17T10:39:20;33.90;59.90
22379;DHT22;11357;49.990;7.370;2023-08-17T10:41:51;34.20;59.80
22379;DHT22;11357;49.990;7.370;2023-08-17T10:44:51;34.50;58.50
22379;DHT22;11357;49.990;7.370;2023-08-17T10:47:33;34.20;58.70
22379;DHT22;11357;49.990;7.370;2023-08-17T10:50:06;34.40;59.00
22379;DHT22;11357;49.990;7.370;2023-08-17T10:52:36;34.80;57.70
22379;DHT22;11357;49.990;7.370;2023-08-17T10:55:08;35.10;56.70
22379;DHT22;11357;49.990;7.370;2023-08-17T10:57:57;35.30;57.30
22379;DHT22;11357;49.990;7.370;2023-08-17T11:00:24;35.40;57.50
22379;DHT22;11357;49.990;7.370;2023-08-17T11:02:53;36.20;56.50
22379;DHT22;11357;49.990;7.370;2023-08-17T11:08:09;36.70;55.10
22379;DHT22;11357;49.990;7.370;2023-08-17T11:10:35;36.60;54.70
22379;DHT22;11357;49.990;7.370;2023-08-17T11:13:01;36.40;55.30
22379;DHT22;11357;49.990;7.370;2023-08-17T11:15:40;36.20;55.90
22379;DHT22;11357;49.990;7.370;2023-08-17T11:18:11;36.10;56.10
22379;DHT22;11357;49.990;7.370;2023-08-17T11:20:38;35.90;56.00
22379;DHT22;11357;49.990;7.370;2023-08-17T11:23:05;35.70;56.50
22379;DHT22;11357;49.990;7.370;2023-08-17T11:25:32;35.40;57.00
22379;DHT22;11357;49.990;7.370;2023-08-17T11:28:02;35.10;57.30
22379;DHT22;11357;49.990;7.370;2023-08-17T11:30:29;34.90;57.80
22379;DHT22;11357;49.990;7.370;2023-08-17T11:32:56;34.70;58.60
22379;DHT22;11357;49.990;7.370;2023-08-17T11:35:22;34.60;58.80
22379;DHT22;11357;49.990;7.370;2023-08-17T11:37:48;34.60;58.90
22379;DHT22;11357;49.990;7.370;2023-08-17T11:40:15;34.50;59.80
22379;DHT22;11357;49.990;7.370;2023-08-17T11:42:42;34.50;59.30
22379;DHT22;11357;49.990;7.370;2023-08-17T11:45:08;34.50;59.30
22379;DHT22;11357;49.990;7.370;2023-08-17T11:47:42;34.50;58.10
22379;DHT22;11357;49.990;7.370;2023-08-17T11:50:12;34.40;58.80
22379;DHT22;11357;49.990;7.370;2023-08-17T11:52:38;34.20;59.00
22379;DHT22;11357;49.990;7.370;2023-08-17T11:55:08;34.10;59.80
22379;DHT22;11357;49.990;7.370;2023-08-17T11:57:37;33.90;59.40
22379;DHT22;11357;49.990;7.370;2023-08-17T12:00:04;33.70;59.60
22379;DHT22;11357;49.990;7.370;2023-08-17T12:02:35;33.60;59.90
22379;DHT22;11357;49.990;7.370;2023-08-17T12:05:07;33.40;60.50
22379;DHT22;11357;49.990;7.370;2023-08-17T12:07:35;33.30;59.60
22379;DHT22;11357;49.990;7.370;2023-08-17T12:10:04;33.20;59.80
22379;DHT22;11357;49.990;7.370;2023-08-17T12:12:30;33.30;60.60
22379;DHT22;11357;49.990;7.370;2023-08-17T12:14:57;33.30;60.50
22379;DHT22;11357;49.990;7.370;2023-08-17T12:17:23;33.30;60.10
22379;DHT22;11357;49.990;7.370;2023-08-17T12:19:53;33.20;60.00
22379;DHT22;11357;49.990;7.370;2023-08-17T12:22:19;33.20;60.30
22379;DHT22;11357;49.990;7.370;2023-08-17T12:24:49;33.20;59.80
22379;DHT22;11357;49.990;7.370;2023-08-17T12:27:14;33.20;60.20
22379;DHT22;11357;49.990;7.370;2023-08-17T12:29:50;33.20;60.40
22379;DHT22;11357;49.990;7.370;2023-08-17T12:32:18;33.20;59.60
22379;DHT22;11357;49.990;7.370;2023-08-17T12:34:45;33.00;60.00
22379;DHT22;11357;49.990;7.370;2023-08-17T12:37:11;32.90;59.70
22379;DHT22;11357;49.990;7.370;2023-08-17T12:39:38;32.50;60.10
22379;DHT22;11357;49.990;7.370;2023-08-17T12:42:07;32.30;61.40
22379;DHT22;11357;49.990;7.370;2023-08-17T12:44:32;32.40;62.10
22379;DHT22;11357;49.990;7.370;2023-08-17T12:46:58;32.40;62.30
22379;DHT22;11357;49.990;7.370;2023-08-17T12:49:24;32.20;62.50
22379;DHT22;11357;49.990;7.370;2023-08-17T12:51:50;32.10;63.00
22379;DHT22;11357;49.990;7.370;2023-08-17T12:54:17;32.00;63.10
22379;DHT22;11357;49.990;7.370;2023-08-17T12:56:44;31.90;63.70
22379;DHT22;11357;49.990;7.370;2023-08-17T12:59:09;31.80;64.30
22379;DHT22;11357;49.990;7.370;2023-08-17T13:01:35;31.50;64.60
22379;DHT22;11357;49.990;7.370;2023-08-17T13:04:01;31.30;65.10
22379;DHT22;11357;49.990;7.370;2023-08-17T13:06:26;31.00;65.70
22379;DHT22;11357;49.990;7.370;2023-08-17T13:08:52;30.80;66.20
22379;DHT22;11357;49.990;7.370;2023-08-17T13:11:17;30.70;66.70
22379;DHT22;11357;49.990;7.370;2023-08-17T13:13:43;30.70;67.30
22379;DHT22;11357;49.990;7.370;2023-08-17T13:16:09;30.80;67.00
22379;DHT22;11357;49.990;7.370;2023-08-17T13:18:36;30.90;67.20
22379;DHT22;11357;49.990;7.370;2023-08-17T13:21:02;31.20;67.10
22379;DHT22;11357;49.990;7.370;2023-08-17T13:23:27;31.20;66.70
22379;DHT22;11357;49.990;7.370;2023-08-17T13:25:53;31.20;66.80
22379;DHT22;11357;49.990;7.370;2023-08-17T13:28:19;31.00;66.70
22379;DHT22;11357;49.990;7.370;2023-08-17T13:30:45;30.80;67.00
22379;DHT22;11357;49.990;7.370;2023-08-17T13:33:10;30.70;67.40
22379;DHT22;11357;49.990;7.370;2023-08-17T13:35:36;30.90;67.30
22379;DHT22;11357;49.990;7.370;2023-08-17T13:38:02;31.00;67.30
22379;DHT22;11357;49.990;7.370;2023-08-17T13:40:31;31.00;66.90
22379;DHT22;11357;49.990;7.370;2023-08-17T13:42:57;30.80;67.10
22379;DHT22;11357;49.990;7.370;2023-08-17T13:45:26;30.60;67.60
22379;DHT22;11357;49.990;7.370;2023-08-17T13:47:51;30.40;67.80
22379;DHT22;11357;49.990;7.370;2023-08-17T13:50:17;30.30;68.30
22379;DHT22;11357;49.990;7.370;2023-08-17T13:52:44;30.40;68.60
22379;DHT22;11357;49.990;7.370;2023-08-17T13:55:10;30.50;68.80
22379;DHT22;11357;49.990;7.370;2023-08-17T13:57:36;30.80;68.80
22379;DHT22;11357;49.990;7.370;2023-08-17T14:00:02;30.80;68.20
22379;DHT22;11357;49.990;7.370;2023-08-17T14:02:29;31.00;67.80
22379;DHT22;11357;49.990;7.370;2023-08-17T14:04:55;31.10;67.60
22379;DHT22;11357;49.990;7.370;2023-08-17T14:07:21;30.90;67.80
22379;DHT22;11357;49.990;7.370;2023-08-17T14:09:46;30.90;67.80
22379;DHT22;11357;49.990;7.370;2023-08-17T14:12:12;31.00;68.10
22379;DHT22;11357;49.990;7.370;2023-08-17T14:14:38;31.10;68.70
22379;DHT22;11357;49.990;7.370;2023-08-17T14:17:04;31.20;68.60
22379;DHT22;11357;49.990;7.370;2023-08-17T14:19:29;31.30;68.50
22379;DHT22;11357;49.990;7.370;2023-08-17T14:21:56;31.40;68.20
22379;DHT22;11357;49.990;7.370;2023-08-17T14:24:21;31.60;67.90
22379;DHT22;11357;49.990;7.370;2023-08-17T14:26:47;31.60;67.50
22379;DHT22;11357;49.990;7.370;2023-08-17T14:29:13;31.60;67.10
22379;DHT22;11357;49.990;7.370;2023-08-17T14:31:38;31.60;67.40
22379;DHT22;11357;49.990;7.370;2023-08-17T14:34:04;31.50;67.30
22379;DHT22;11357;49.990;7.370;2023-08-17T14:36:30;31.40;67.40
22379;DHT22;11357;49.990;7.370;2023-08-17T14:38:55;31.30;68.00
22379;DHT22;11357;49.990;7.370;2023-08-17T14:41:21;31.40;67.90
22379;DHT22;11357;49.990;7.370;2023-08-17T14:43:47;31.40;67.70
22379;DHT22;11357;49.990;7.370;2023-08-17T14:46:12;31.30;67.60
22379;DHT22;11357;49.990;7.370;2023-08-17T14:48:38;31.00;67.90
22379;DHT22;11357;49.990;7.370;2023-08-17T14:51:04;30.90;68.40
22379;DHT22;11357;49.990;7.370;2023-08-17T14:53:30;30.90;68.40
22379;DHT22;11357;49.990;7.370;2023-08-17T14:55:56;30.80;69.00
22379;DHT22;11357;49.990;7.370;2023-08-17T14:58:21;30.70;68.70
22379;DHT22;11357;49.990;7.370;2023-08-17T15:00:47;30.70;68.10
22379;DHT22;11357;49.990;7.370;2023-08-17T15:03:13;30.70;68.60
22379;DHT22;11357;49.990;7.370;2023-08-17T15:05:38;30.70;69.20
22379;DHT22;11357;49.990;7.370;2023-08-17T15:08:04;30.70;68.40
22379;DHT22;11357;49.990;7.370;2023-08-17T15:10:30;30.50;68.20
22379;DHT22;11357;49.990;7.370;2023-08-17T15:12:56;30.40;68.30
22379;DHT22;11357;49.990;7.370;2023-08-17T15:15:21;30.50;68.90
22379;DHT22;11357;49.990;7.370;2023-08-17T15:17:47;30.60;68.50
22379;DHT22;11357;49.990;7.370;2023-08-17T15:20:13;30.60;68.80
22379;DHT22;11357;49.990;7.370;2023-08-17T15:22:38;30.60;68.80
22379;DHT22;11357;49.990;7.370;2023-08-17T15:25:04;30.70;68.70
22379;DHT22;11357;49.990;7.370;2023-08-17T15:27:30;30.90;68.80
22379;DHT22;11357;49.990;7.370;2023-08-17T15:29:55;31.00;68.40
22379;DHT22;11357;49.990;7.370;2023-08-17T15:32:21;31.00;68.20
22379;DHT22;11357;49.990;7.370;2023-08-17T15:34:47;30.90;68.30
22379;DHT22;11357;49.990;7.370;2023-08-17T15:37:12;30.70;68.50
22379;DHT22;11357;49.990;7.370;2023-08-17T15:39:38;30.50;68.20